OCN9ZF EDDF-LGIR
Flight info
| Callsign | OCN9ZF |
|---|---|
| Flight time | 2h 52m |
| Altitude | 35000 |
| Route | CINDY8S/18 CINDY Z74 LAMPU DCT NOMBO Y161 MAH DCT LATLO DCT OBEDI DCT TEBLI DCT TIVNU DCT RETRA DCT PINDO DCT PIKOS DCT KEA UL607 GIVIS/N0428F230 T514 XAVIS |
| Aircraft | A320/M-SDE3FGHIRWY/LB1 |
Departure
| Time | 2026-04-15 08:31 |
|---|---|
| Airport | Frankfurt Main Airport (EDDF) |
Arrival
| Time | 2026-04-15 11:23 |
|---|---|
| Airport | Heraklion International Nikos Kazantzakis Airport (LGIR) |
| Time | Latitude | Longitude | Altitude | Speed | Heading |
|---|---|---|---|---|---|
| 2026-04-15 08:16 | 50.04883 | 8.57153 | 356 ft | 0 kts | 161° |
| 2026-04-15 08:20 | 50.04877 | 8.57148 | 356 ft | 3 kts | 199° |
| 2026-04-15 08:20 | 50.04860 | 8.57138 | 358 ft | 2 kts | 199° |
| 2026-04-15 08:21 | 50.04856 | 8.57137 | 356 ft | 0 kts | 199° |
| 2026-04-15 08:23 | 50.04829 | 8.57114 | 362 ft | 7 kts | 216° |
| 2026-04-15 08:23 | 50.04784 | 8.57058 | 362 ft | 8 kts | 218° |
| 2026-04-15 08:23 | 50.04740 | 8.57006 | 365 ft | 10 kts | 214° |
| 2026-04-15 08:24 | 50.04664 | 8.56942 | 361 ft | 12 kts | 205° |
| 2026-04-15 08:24 | 50.04589 | 8.56905 | 356 ft | 10 kts | 196° |
| 2026-04-15 08:24 | 50.04527 | 8.56882 | 359 ft | 14 kts | 192° |
| 2026-04-15 08:24 | 50.04435 | 8.56854 | 359 ft | 13 kts | 189° |
| 2026-04-15 08:25 | 50.04339 | 8.56828 | 360 ft | 14 kts | 190° |
| 2026-04-15 08:25 | 50.04255 | 8.56775 | 360 ft | 14 kts | 227° |
| 2026-04-15 08:25 | 50.04213 | 8.56632 | 358 ft | 15 kts | 249° |
| 2026-04-15 08:25 | 50.04172 | 8.56465 | 360 ft | 21 kts | 250° |
| 2026-04-15 08:26 | 50.04119 | 8.56242 | 356 ft | 23 kts | 249° |
| 2026-04-15 08:26 | 50.04062 | 8.56012 | 356 ft | 23 kts | 249° |
| 2026-04-15 08:26 | 50.04005 | 8.55774 | 353 ft | 24 kts | 250° |
| 2026-04-15 08:26 | 50.03944 | 8.55522 | 357 ft | 25 kts | 249° |
| 2026-04-15 08:27 | 50.03885 | 8.55268 | 351 ft | 25 kts | 249° |
| 2026-04-15 08:27 | 50.03824 | 8.55014 | 353 ft | 25 kts | 250° |
| 2026-04-15 08:27 | 50.03761 | 8.54750 | 352 ft | 26 kts | 250° |
| 2026-04-15 08:27 | 50.03701 | 8.54501 | 350 ft | 26 kts | 249° |
| 2026-04-15 08:28 | 50.03639 | 8.54238 | 344 ft | 23 kts | 250° |
| 2026-04-15 08:28 | 50.03581 | 8.53998 | 338 ft | 24 kts | 249° |
| 2026-04-15 08:28 | 50.03519 | 8.53745 | 337 ft | 25 kts | 250° |
| 2026-04-15 08:28 | 50.03456 | 8.53481 | 336 ft | 26 kts | 250° |
| 2026-04-15 08:29 | 50.03403 | 8.53253 | 333 ft | 23 kts | 250° |
| 2026-04-15 08:29 | 50.03346 | 8.53014 | 332 ft | 24 kts | 249° |
| 2026-04-15 08:29 | 50.03287 | 8.52770 | 331 ft | 21 kts | 250° |
| 2026-04-15 08:29 | 50.03221 | 8.52625 | 333 ft | 15 kts | 212° |
| 2026-04-15 08:30 | 50.03125 | 8.52597 | 335 ft | 14 kts | 181° |
| 2026-04-15 08:30 | 50.03016 | 8.52598 | 333 ft | 22 kts | 179° |
| 2026-04-15 08:30 | 50.02616 | 8.52605 | 335 ft | 91 kts | 179° |
| 2026-04-15 08:30 | 50.01785 | 8.52619 | 332 ft | 145 kts | 179° |
| 2026-04-15 08:31 | 50.00632 | 8.52606 | 427 ft | 179 kts | 180° |
| 2026-04-15 08:31 | 49.99416 | 8.52563 | 1173 ft | 173 kts | 179° |
| 2026-04-15 08:31 | 49.98201 | 8.52577 | 1814 ft | 179 kts | 174° |
| 2026-04-15 08:31 | 49.96951 | 8.53133 | 2071 ft | 198 kts | 148° |
| 2026-04-15 08:32 | 49.95920 | 8.54654 | 2374 ft | 214 kts | 121° |
| 2026-04-15 08:32 | 49.95180 | 8.56707 | 3016 ft | 219 kts | 118° |
| 2026-04-15 08:32 | 49.94453 | 8.58764 | 3774 ft | 221 kts | 114° |
| 2026-04-15 08:32 | 49.94029 | 8.61087 | 4410 ft | 233 kts | 95° |
| 2026-04-15 08:33 | 49.93917 | 8.63710 | 4821 ft | 252 kts | 93° |
| 2026-04-15 08:33 | 49.93784 | 8.66466 | 5595 ft | 259 kts | 99° |
| 2026-04-15 08:33 | 49.93204 | 8.69138 | 6371 ft | 266 kts | 119° |
| 2026-04-15 08:33 | 49.92048 | 8.71393 | 7103 ft | 271 kts | 140° |
| 2026-04-15 08:34 | 49.90516 | 8.73122 | 7830 ft | 275 kts | 146° |
| 2026-04-15 08:34 | 49.88992 | 8.74941 | 8567 ft | 280 kts | 136° |
| 2026-04-15 08:34 | 49.87766 | 8.77312 | 9300 ft | 285 kts | 121° |
| 2026-04-15 08:34 | 49.86793 | 8.80025 | 10050 ft | 290 kts | 119° |
| 2026-04-15 08:35 | 49.85797 | 8.82794 | 10573 ft | 303 kts | 119° |
| 2026-04-15 08:35 | 49.84760 | 8.85672 | 11269 ft | 303 kts | 120° |
| 2026-04-15 08:35 | 49.83733 | 8.88508 | 12131 ft | 302 kts | 120° |
| 2026-04-15 08:35 | 49.82699 | 8.91359 | 12852 ft | 305 kts | 120° |
| 2026-04-15 08:36 | 49.81655 | 8.94232 | 13550 ft | 308 kts | 120° |
| 2026-04-15 08:36 | 49.80594 | 8.97134 | 14207 ft | 312 kts | 120° |
| 2026-04-15 08:36 | 49.79519 | 9.00070 | 14808 ft | 315 kts | 120° |
| 2026-04-15 08:36 | 49.78439 | 9.03036 | 15408 ft | 318 kts | 119° |
| 2026-04-15 08:37 | 49.77347 | 9.06029 | 16025 ft | 321 kts | 118° |
| 2026-04-15 08:37 | 49.76384 | 9.09152 | 16619 ft | 323 kts | 110° |
| 2026-04-15 08:37 | 49.75676 | 9.12460 | 17195 ft | 325 kts | 103° |
| 2026-04-15 08:37 | 49.74999 | 9.15817 | 17796 ft | 329 kts | 110° |
| 2026-04-15 08:38 | 49.74008 | 9.19027 | 18411 ft | 333 kts | 118° |
| 2026-04-15 08:38 | 49.72744 | 9.22042 | 18924 ft | 337 kts | 125° |
| 2026-04-15 08:38 | 49.71240 | 9.24839 | 19430 ft | 340 kts | 130° |
| 2026-04-15 08:38 | 49.69671 | 9.27595 | 19920 ft | 343 kts | 130° |
| 2026-04-15 08:39 | 49.68095 | 9.30376 | 20413 ft | 346 kts | 129° |
| 2026-04-15 08:39 | 49.66510 | 9.33184 | 20917 ft | 348 kts | 130° |
| 2026-04-15 08:39 | 49.64922 | 9.35990 | 21399 ft | 351 kts | 130° |
| 2026-04-15 08:39 | 49.63291 | 9.38802 | 21889 ft | 353 kts | 133° |
| 2026-04-15 08:40 | 49.61473 | 9.41375 | 22384 ft | 356 kts | 140° |
| 2026-04-15 08:40 | 49.59451 | 9.43625 | 22843 ft | 360 kts | 147° |
| 2026-04-15 08:40 | 49.57289 | 9.45611 | 23314 ft | 363 kts | 148° |
| 2026-04-15 08:40 | 49.55106 | 9.47601 | 23795 ft | 366 kts | 148° |
| 2026-04-15 08:41 | 49.52907 | 9.49611 | 24184 ft | 369 kts | 148° |
| 2026-04-15 08:41 | 49.50691 | 9.51637 | 24553 ft | 372 kts | 148° |
| 2026-04-15 08:41 | 49.48455 | 9.53678 | 24910 ft | 376 kts | 148° |
| 2026-04-15 08:41 | 49.46195 | 9.55737 | 25263 ft | 379 kts | 148° |
| 2026-04-15 08:42 | 49.43920 | 9.57804 | 25677 ft | 380 kts | 148° |
| 2026-04-15 08:42 | 49.41641 | 9.59875 | 26109 ft | 381 kts | 148° |
| 2026-04-15 08:42 | 49.39359 | 9.61949 | 26542 ft | 382 kts | 147° |
| 2026-04-15 08:42 | 49.37103 | 9.64000 | 26941 ft | 383 kts | 147° |
| 2026-04-15 08:43 | 49.34837 | 9.66226 | 27358 ft | 382 kts | 141° |
| 2026-04-15 08:43 | 49.32784 | 9.68743 | 27753 ft | 381 kts | 134° |
| 2026-04-15 08:43 | 49.30886 | 9.71572 | 28154 ft | 381 kts | 131° |
| 2026-04-15 08:43 | 49.29015 | 9.74444 | 28564 ft | 381 kts | 131° |
| 2026-04-15 08:44 | 49.27137 | 9.77318 | 28963 ft | 382 kts | 131° |
| 2026-04-15 08:44 | 49.25254 | 9.80191 | 29375 ft | 383 kts | 131° |
| 2026-04-15 08:44 | 49.23367 | 9.83061 | 29805 ft | 382 kts | 130° |
| 2026-04-15 08:44 | 49.21479 | 9.85925 | 30216 ft | 383 kts | 130° |
| 2026-04-15 08:45 | 49.19580 | 9.88804 | 30491 ft | 386 kts | 130° |
| 2026-04-15 08:45 | 49.17693 | 9.91671 | 30712 ft | 389 kts | 130° |
| 2026-04-15 08:45 | 49.15767 | 9.94595 | 30949 ft | 392 kts | 130° |
| 2026-04-15 08:45 | 49.13825 | 9.97539 | 31192 ft | 395 kts | 130° |
| 2026-04-15 08:46 | 49.11869 | 10.00503 | 31420 ft | 398 kts | 130° |
| 2026-04-15 08:46 | 49.09893 | 10.03487 | 31654 ft | 401 kts | 130° |
| 2026-04-15 08:46 | 49.07901 | 10.06485 | 31882 ft | 404 kts | 130° |
| 2026-04-15 08:46 | 49.05892 | 10.09505 | 32111 ft | 407 kts | 130° |
| 2026-04-15 08:47 | 49.03837 | 10.12503 | 32350 ft | 411 kts | 131° |
| 2026-04-15 08:47 | 49.01738 | 10.15477 | 32595 ft | 414 kts | 132° |
| 2026-04-15 08:47 | 48.99641 | 10.18404 | 32859 ft | 416 kts | 131° |
| 2026-04-15 08:47 | 48.97462 | 10.21433 | 33090 ft | 419 kts | 131° |
| 2026-04-15 08:48 | 48.95306 | 10.24440 | 33335 ft | 422 kts | 131° |
| 2026-04-15 08:48 | 48.93142 | 10.27474 | 33553 ft | 424 kts | 131° |
| 2026-04-15 08:48 | 48.90973 | 10.30538 | 33766 ft | 427 kts | 131° |
| 2026-04-15 08:48 | 48.88815 | 10.33592 | 33963 ft | 429 kts | 131° |
| 2026-04-15 08:49 | 48.86632 | 10.36679 | 34168 ft | 432 kts | 131° |
| 2026-04-15 08:49 | 48.84414 | 10.39804 | 34368 ft | 434 kts | 131° |
| 2026-04-15 08:49 | 48.82239 | 10.42893 | 34543 ft | 434 kts | 129° |
| 2026-04-15 08:49 | 48.80100 | 10.46130 | 34752 ft | 434 kts | 127° |
| 2026-04-15 08:50 | 48.78023 | 10.49448 | 34939 ft | 434 kts | 126° |
| 2026-04-15 08:50 | 48.75971 | 10.52819 | 35156 ft | 435 kts | 126° |
| 2026-04-15 08:50 | 48.73970 | 10.56130 | 35254 ft | 437 kts | 126° |
| 2026-04-15 08:51 | 48.69795 | 10.62934 | 35277 ft | 437 kts | 127° |
| 2026-04-15 08:51 | 48.65597 | 10.69598 | 35269 ft | 437 kts | 127° |
| 2026-04-15 08:52 | 48.61389 | 10.76229 | 35265 ft | 437 kts | 127° |
| 2026-04-15 08:52 | 48.57196 | 10.82864 | 35254 ft | 437 kts | 127° |
| 2026-04-15 08:53 | 48.53034 | 10.89530 | 35275 ft | 436 kts | 127° |
| 2026-04-15 08:53 | 48.48890 | 10.96175 | 35265 ft | 434 kts | 127° |
| 2026-04-15 08:54 | 48.44712 | 11.02751 | 35262 ft | 434 kts | 127° |
| 2026-04-15 08:54 | 48.40557 | 11.09189 | 35253 ft | 434 kts | 128° |
| 2026-04-15 08:55 | 48.36301 | 11.15771 | 35249 ft | 433 kts | 127° |
| 2026-04-15 08:55 | 48.32106 | 11.22272 | 35243 ft | 433 kts | 127° |
| 2026-04-15 08:56 | 48.27926 | 11.28761 | 35261 ft | 430 kts | 125° |
| 2026-04-15 08:56 | 48.24585 | 11.35856 | 35245 ft | 430 kts | 112° |
| 2026-04-15 08:57 | 48.22116 | 11.42439 | 35246 ft | 441 kts | 112° |
| 2026-04-15 08:57 | 48.19036 | 11.50553 | 35245 ft | 454 kts | 113° |
| 2026-04-15 08:58 | 48.15387 | 11.60114 | 35265 ft | 467 kts | 113° |
| 2026-04-15 08:58 | 48.11046 | 11.71494 | 35246 ft | 472 kts | 114° |
| 2026-04-15 08:59 | 48.07866 | 11.79772 | 35249 ft | 473 kts | 114° |
| 2026-04-15 08:59 | 48.04514 | 11.88466 | 35246 ft | 473 kts | 114° |
| 2026-04-15 09:00 | 48.01225 | 11.96980 | 35248 ft | 473 kts | 114° |
| 2026-04-15 09:00 | 47.97943 | 12.05478 | 35261 ft | 472 kts | 115° |
| 2026-04-15 09:01 | 47.94656 | 12.13960 | 35255 ft | 472 kts | 115° |
| 2026-04-15 09:01 | 47.91362 | 12.22426 | 35249 ft | 472 kts | 115° |
| 2026-04-15 09:02 | 47.88056 | 12.30880 | 35242 ft | 472 kts | 115° |
| 2026-04-15 09:02 | 47.84745 | 12.39316 | 35239 ft | 472 kts | 115° |
| 2026-04-15 09:03 | 47.81426 | 12.47749 | 35234 ft | 472 kts | 115° |
| 2026-04-15 09:03 | 47.78137 | 12.56089 | 35236 ft | 472 kts | 115° |
| 2026-04-15 09:04 | 47.74808 | 12.64505 | 35234 ft | 472 kts | 115° |
| 2026-04-15 09:04 | 47.71476 | 12.72899 | 35252 ft | 471 kts | 117° |
| 2026-04-15 09:05 | 47.67945 | 12.81085 | 35249 ft | 475 kts | 126° |
| 2026-04-15 09:05 | 47.63338 | 12.88147 | 35243 ft | 477 kts | 132° |
| 2026-04-15 09:06 | 47.58636 | 12.95079 | 35233 ft | 477 kts | 132° |
| 2026-04-15 09:06 | 47.53941 | 13.02019 | 35227 ft | 477 kts | 132° |
| 2026-04-15 09:07 | 47.49245 | 13.08942 | 35233 ft | 476 kts | 133° |
| 2026-04-15 09:07 | 47.44539 | 13.15825 | 35223 ft | 476 kts | 133° |
| 2026-04-15 09:08 | 47.39840 | 13.22695 | 35217 ft | 475 kts | 133° |
| 2026-04-15 09:08 | 47.35146 | 13.29546 | 35215 ft | 475 kts | 133° |
| 2026-04-15 09:09 | 47.30504 | 13.36462 | 35212 ft | 474 kts | 130° |
| 2026-04-15 09:09 | 47.26185 | 13.43679 | 35226 ft | 472 kts | 128° |
| 2026-04-15 09:10 | 47.21938 | 13.51036 | 35232 ft | 471 kts | 128° |
| 2026-04-15 09:10 | 47.17640 | 13.58301 | 35227 ft | 471 kts | 129° |
| 2026-04-15 09:11 | 47.13294 | 13.65481 | 35230 ft | 470 kts | 129° |
| 2026-04-15 09:11 | 47.08938 | 13.72628 | 35236 ft | 469 kts | 130° |
| 2026-04-15 09:12 | 47.04593 | 13.79761 | 35241 ft | 468 kts | 130° |
| 2026-04-15 09:12 | 47.00265 | 13.86894 | 35236 ft | 468 kts | 130° |
| 2026-04-15 09:13 | 46.95937 | 13.94005 | 35240 ft | 468 kts | 130° |
| 2026-04-15 09:13 | 46.91674 | 14.00980 | 35238 ft | 467 kts | 130° |
| 2026-04-15 09:14 | 46.87351 | 14.08046 | 35251 ft | 466 kts | 131° |
| 2026-04-15 09:14 | 46.83029 | 14.15074 | 35255 ft | 465 kts | 131° |
| 2026-04-15 09:15 | 46.78699 | 14.22085 | 35254 ft | 464 kts | 131° |
| 2026-04-15 09:15 | 46.74375 | 14.29072 | 35250 ft | 464 kts | 131° |
| 2026-04-15 09:16 | 46.70059 | 14.36051 | 35255 ft | 464 kts | 132° |
| 2026-04-15 09:16 | 46.65735 | 14.43032 | 35232 ft | 464 kts | 133° |
| 2026-04-15 09:17 | 46.61394 | 14.49990 | 35231 ft | 464 kts | 133° |
| 2026-04-15 09:17 | 46.57048 | 14.56934 | 35231 ft | 464 kts | 133° |
| 2026-04-15 09:18 | 46.52706 | 14.63878 | 35235 ft | 464 kts | 133° |
| 2026-04-15 09:18 | 46.48361 | 14.70808 | 35240 ft | 464 kts | 133° |
| 2026-04-15 09:19 | 46.44014 | 14.77730 | 35240 ft | 464 kts | 134° |
| 2026-04-15 09:19 | 46.39660 | 14.84639 | 35237 ft | 464 kts | 134° |
| 2026-04-15 09:20 | 46.35300 | 14.91531 | 35248 ft | 464 kts | 134° |
| 2026-04-15 09:20 | 46.30937 | 14.98400 | 35248 ft | 463 kts | 135° |
| 2026-04-15 09:21 | 46.26583 | 15.05256 | 35250 ft | 462 kts | 135° |
| 2026-04-15 09:21 | 46.22228 | 15.12086 | 35246 ft | 462 kts | 135° |
| 2026-04-15 09:22 | 46.17870 | 15.18897 | 35248 ft | 462 kts | 135° |
| 2026-04-15 09:22 | 46.13511 | 15.25704 | 35238 ft | 462 kts | 135° |
| 2026-04-15 09:23 | 46.09152 | 15.32507 | 35241 ft | 462 kts | 135° |
| 2026-04-15 09:23 | 46.04788 | 15.39289 | 35242 ft | 462 kts | 135° |
| 2026-04-15 09:24 | 46.00411 | 15.46062 | 35242 ft | 462 kts | 135° |
| 2026-04-15 09:24 | 45.96066 | 15.52789 | 35245 ft | 462 kts | 135° |
| 2026-04-15 09:25 | 45.91683 | 15.59543 | 35249 ft | 463 kts | 135° |
| 2026-04-15 09:25 | 45.87287 | 15.66296 | 35248 ft | 463 kts | 135° |
| 2026-04-15 09:26 | 45.82899 | 15.73039 | 35246 ft | 462 kts | 135° |
| 2026-04-15 09:26 | 45.78507 | 15.79777 | 35242 ft | 462 kts | 135° |
| 2026-04-15 09:27 | 45.74108 | 15.86491 | 35242 ft | 462 kts | 135° |
| 2026-04-15 09:27 | 45.69706 | 15.93191 | 35228 ft | 462 kts | 135° |
| 2026-04-15 09:28 | 45.65303 | 15.99874 | 35215 ft | 462 kts | 135° |
| 2026-04-15 09:28 | 45.60895 | 16.06554 | 35215 ft | 462 kts | 135° |
| 2026-04-15 09:29 | 45.56490 | 16.13225 | 35215 ft | 462 kts | 135° |
| 2026-04-15 09:29 | 45.52078 | 16.19886 | 35209 ft | 461 kts | 135° |
| 2026-04-15 09:30 | 45.47672 | 16.26516 | 35222 ft | 460 kts | 136° |
| 2026-04-15 09:30 | 45.43261 | 16.33125 | 35226 ft | 460 kts | 136° |
| 2026-04-15 09:31 | 45.38855 | 16.39717 | 35225 ft | 459 kts | 136° |
| 2026-04-15 09:31 | 45.34454 | 16.46299 | 35216 ft | 459 kts | 135° |
| 2026-04-15 09:32 | 45.30053 | 16.52868 | 35218 ft | 459 kts | 136° |
| 2026-04-15 09:32 | 45.25647 | 16.59420 | 35218 ft | 459 kts | 136° |
| 2026-04-15 09:33 | 45.21232 | 16.65951 | 35218 ft | 458 kts | 136° |
| 2026-04-15 09:33 | 45.16900 | 16.72595 | 35217 ft | 459 kts | 134° |
| 2026-04-15 09:34 | 45.12741 | 16.79462 | 35214 ft | 460 kts | 133° |
| 2026-04-15 09:34 | 45.08602 | 16.86348 | 35220 ft | 458 kts | 134° |
| 2026-04-15 09:35 | 45.04463 | 16.93104 | 35224 ft | 457 kts | 134° |
| 2026-04-15 09:35 | 45.00270 | 16.99852 | 35226 ft | 456 kts | 134° |
| 2026-04-15 09:36 | 44.95861 | 17.06235 | 35223 ft | 451 kts | 145° |
| 2026-04-15 09:36 | 44.90635 | 17.11056 | 35221 ft | 448 kts | 151° |
| 2026-04-15 09:37 | 44.85331 | 17.15691 | 35215 ft | 449 kts | 151° |
| 2026-04-15 09:37 | 44.80028 | 17.20321 | 35222 ft | 449 kts | 151° |
| 2026-04-15 09:38 | 44.74723 | 17.24942 | 35212 ft | 448 kts | 151° |
| 2026-04-15 09:38 | 44.69425 | 17.29539 | 35201 ft | 448 kts | 151° |
| 2026-04-15 09:39 | 44.64116 | 17.34149 | 35178 ft | 449 kts | 151° |
| 2026-04-15 09:39 | 44.58799 | 17.38760 | 35170 ft | 449 kts | 150° |
| 2026-04-15 09:40 | 44.53473 | 17.43361 | 35177 ft | 450 kts | 150° |
| 2026-04-15 09:40 | 44.48146 | 17.47960 | 35174 ft | 450 kts | 150° |
| 2026-04-15 09:41 | 44.42808 | 17.52547 | 35170 ft | 450 kts | 150° |
| 2026-04-15 09:41 | 44.37462 | 17.57122 | 35168 ft | 450 kts | 150° |
| 2026-04-15 09:42 | 44.32121 | 17.61688 | 35177 ft | 450 kts | 150° |
| 2026-04-15 09:42 | 44.26784 | 17.66244 | 35168 ft | 450 kts | 150° |
| 2026-04-15 09:43 | 44.21444 | 17.70799 | 35165 ft | 450 kts | 150° |
| 2026-04-15 09:43 | 44.16105 | 17.75341 | 35159 ft | 449 kts | 150° |
| 2026-04-15 09:44 | 44.11225 | 17.79490 | 35160 ft | 449 kts | 150° |
| 2026-04-15 09:44 | 44.05892 | 17.84010 | 35164 ft | 448 kts | 151° |
| 2026-04-15 09:45 | 44.00598 | 17.88476 | 35157 ft | 448 kts | 150° |
| 2026-04-15 09:45 | 43.95271 | 17.92970 | 35146 ft | 448 kts | 150° |
| 2026-04-15 09:46 | 43.89936 | 17.97467 | 35140 ft | 449 kts | 151° |
| 2026-04-15 09:46 | 43.84602 | 18.01957 | 35143 ft | 449 kts | 151° |
| 2026-04-15 09:47 | 43.79257 | 18.06429 | 35150 ft | 449 kts | 150° |
| 2026-04-15 09:47 | 43.73901 | 18.10890 | 35144 ft | 449 kts | 150° |
| 2026-04-15 09:48 | 43.68547 | 18.15355 | 35142 ft | 450 kts | 150° |
| 2026-04-15 09:48 | 43.63192 | 18.19825 | 35141 ft | 450 kts | 150° |
| 2026-04-15 09:49 | 43.57832 | 18.24285 | 35118 ft | 450 kts | 150° |
| 2026-04-15 09:49 | 43.52469 | 18.28735 | 35119 ft | 450 kts | 150° |
| 2026-04-15 09:50 | 43.47104 | 18.33171 | 35119 ft | 450 kts | 150° |
| 2026-04-15 09:50 | 43.41737 | 18.37604 | 35122 ft | 450 kts | 150° |
| 2026-04-15 09:51 | 43.36369 | 18.42033 | 35123 ft | 450 kts | 150° |
| 2026-04-15 09:51 | 43.31002 | 18.46454 | 35113 ft | 450 kts | 150° |
| 2026-04-15 09:52 | 43.25629 | 18.50856 | 35113 ft | 450 kts | 150° |
| 2026-04-15 09:52 | 43.20256 | 18.55252 | 35112 ft | 450 kts | 150° |
| 2026-04-15 09:53 | 43.14883 | 18.59645 | 35111 ft | 450 kts | 150° |
| 2026-04-15 09:53 | 43.09508 | 18.64032 | 35112 ft | 450 kts | 150° |
| 2026-04-15 09:54 | 43.04127 | 18.68408 | 35109 ft | 450 kts | 150° |
| 2026-04-15 09:54 | 42.98752 | 18.72771 | 35113 ft | 449 kts | 151° |
| 2026-04-15 09:55 | 42.93376 | 18.77125 | 35109 ft | 449 kts | 151° |
| 2026-04-15 09:55 | 42.88006 | 18.81471 | 35110 ft | 448 kts | 151° |
| 2026-04-15 09:56 | 42.82649 | 18.85801 | 35115 ft | 447 kts | 151° |
| 2026-04-15 09:57 | 42.74622 | 18.92263 | 35121 ft | 446 kts | 151° |
| 2026-04-15 09:57 | 42.69278 | 18.96552 | 35117 ft | 446 kts | 151° |
| 2026-04-15 09:58 | 42.63942 | 19.00831 | 35114 ft | 445 kts | 151° |
| 2026-04-15 09:58 | 42.58613 | 19.05104 | 35108 ft | 444 kts | 151° |
| 2026-04-15 09:59 | 42.53290 | 19.09352 | 35105 ft | 444 kts | 151° |
| 2026-04-15 09:59 | 42.47969 | 19.13579 | 35093 ft | 443 kts | 152° |
| 2026-04-15 10:00 | 42.42656 | 19.17801 | 35093 ft | 442 kts | 152° |
| 2026-04-15 10:00 | 42.37355 | 19.22016 | 35100 ft | 442 kts | 152° |
| 2026-04-15 10:01 | 42.32100 | 19.26176 | 35112 ft | 440 kts | 152° |
| 2026-04-15 10:01 | 42.26785 | 19.30380 | 35105 ft | 439 kts | 152° |
| 2026-04-15 10:02 | 42.21577 | 19.34685 | 35100 ft | 440 kts | 147° |
| 2026-04-15 10:02 | 42.16621 | 19.39424 | 35115 ft | 440 kts | 147° |
| 2026-04-15 10:03 | 42.11606 | 19.44229 | 35118 ft | 439 kts | 147° |
| 2026-04-15 10:03 | 42.06663 | 19.48958 | 35100 ft | 439 kts | 147° |
| 2026-04-15 10:04 | 42.01685 | 19.53700 | 35107 ft | 439 kts | 148° |
| 2026-04-15 10:04 | 41.96703 | 19.58436 | 35105 ft | 439 kts | 148° |
| 2026-04-15 10:05 | 41.91714 | 19.63158 | 35094 ft | 439 kts | 148° |
| 2026-04-15 10:05 | 41.86727 | 19.67876 | 35104 ft | 438 kts | 148° |
| 2026-04-15 10:06 | 41.81747 | 19.72593 | 35108 ft | 438 kts | 148° |
| 2026-04-15 10:06 | 41.76767 | 19.77293 | 35109 ft | 438 kts | 148° |
| 2026-04-15 10:07 | 41.72590 | 19.81216 | 35099 ft | 438 kts | 148° |
| 2026-04-15 10:07 | 41.67598 | 19.85895 | 35086 ft | 438 kts | 148° |
| 2026-04-15 10:08 | 41.62602 | 19.90580 | 35084 ft | 439 kts | 148° |
| 2026-04-15 10:08 | 41.57596 | 19.95270 | 35082 ft | 440 kts | 149° |
| 2026-04-15 10:09 | 41.52616 | 19.99923 | 35096 ft | 440 kts | 149° |
| 2026-04-15 10:09 | 41.47601 | 20.04611 | 35090 ft | 440 kts | 149° |
| 2026-04-15 10:10 | 41.42577 | 20.09288 | 35093 ft | 441 kts | 149° |
| 2026-04-15 10:10 | 41.37541 | 20.13950 | 35079 ft | 441 kts | 149° |
| 2026-04-15 10:11 | 41.32495 | 20.18625 | 35088 ft | 442 kts | 149° |
| 2026-04-15 10:11 | 41.27444 | 20.23307 | 35093 ft | 443 kts | 149° |
| 2026-04-15 10:12 | 41.22385 | 20.27987 | 35097 ft | 443 kts | 149° |
| 2026-04-15 10:12 | 41.17313 | 20.32656 | 35090 ft | 444 kts | 149° |
| 2026-04-15 10:13 | 41.12239 | 20.37322 | 35107 ft | 444 kts | 149° |
| 2026-04-15 10:13 | 41.07166 | 20.41979 | 35107 ft | 444 kts | 149° |
| 2026-04-15 10:14 | 41.02084 | 20.46635 | 35110 ft | 444 kts | 149° |
| 2026-04-15 10:14 | 40.97000 | 20.51292 | 35106 ft | 445 kts | 149° |
| 2026-04-15 10:15 | 40.91904 | 20.55942 | 35108 ft | 445 kts | 149° |
| 2026-04-15 10:15 | 40.86804 | 20.60586 | 35109 ft | 445 kts | 149° |
| 2026-04-15 10:16 | 40.81697 | 20.65225 | 35119 ft | 445 kts | 149° |
| 2026-04-15 10:16 | 40.76590 | 20.69862 | 35119 ft | 446 kts | 149° |
| 2026-04-15 10:17 | 40.71482 | 20.74496 | 35131 ft | 446 kts | 149° |
| 2026-04-15 10:17 | 40.66371 | 20.79116 | 35131 ft | 446 kts | 150° |
| 2026-04-15 10:18 | 40.61254 | 20.83727 | 35117 ft | 446 kts | 150° |
| 2026-04-15 10:18 | 40.56137 | 20.88341 | 35137 ft | 446 kts | 150° |
| 2026-04-15 10:19 | 40.51024 | 20.92944 | 35140 ft | 446 kts | 150° |
| 2026-04-15 10:19 | 40.46079 | 20.97888 | 35143 ft | 450 kts | 143° |
| 2026-04-15 10:20 | 40.41382 | 21.03304 | 35151 ft | 449 kts | 143° |
| 2026-04-15 10:20 | 40.36689 | 21.08711 | 35167 ft | 449 kts | 143° |
| 2026-04-15 10:21 | 40.31998 | 21.14116 | 35170 ft | 449 kts | 143° |
| 2026-04-15 10:21 | 40.27339 | 21.19470 | 35167 ft | 448 kts | 143° |
| 2026-04-15 10:22 | 40.22648 | 21.24845 | 35169 ft | 448 kts | 143° |
| 2026-04-15 10:22 | 40.17946 | 21.30211 | 35168 ft | 448 kts | 144° |
| 2026-04-15 10:23 | 40.13251 | 21.35570 | 35178 ft | 448 kts | 144° |
| 2026-04-15 10:23 | 40.08560 | 21.40924 | 35188 ft | 448 kts | 144° |
| 2026-04-15 10:24 | 40.03864 | 21.46266 | 35191 ft | 447 kts | 144° |
| 2026-04-15 10:24 | 39.99169 | 21.51588 | 35185 ft | 447 kts | 144° |
| 2026-04-15 10:25 | 39.94478 | 21.56915 | 35187 ft | 448 kts | 143° |
| 2026-04-15 10:25 | 39.89878 | 21.62393 | 35183 ft | 448 kts | 142° |
| 2026-04-15 10:26 | 39.85324 | 21.67936 | 35199 ft | 448 kts | 142° |
| 2026-04-15 10:26 | 39.80751 | 21.73424 | 35181 ft | 447 kts | 143° |
| 2026-04-15 10:27 | 39.76163 | 21.78875 | 35181 ft | 447 kts | 143° |
| 2026-04-15 10:27 | 39.71579 | 21.84321 | 35190 ft | 446 kts | 143° |
| 2026-04-15 10:28 | 39.66992 | 21.89756 | 35191 ft | 447 kts | 143° |
| 2026-04-15 10:28 | 39.62401 | 21.95192 | 35191 ft | 447 kts | 143° |
| 2026-04-15 10:29 | 39.57811 | 22.00612 | 35188 ft | 446 kts | 143° |
| 2026-04-15 10:29 | 39.53220 | 22.06030 | 35190 ft | 446 kts | 143° |
| 2026-04-15 10:30 | 39.48625 | 22.11432 | 35185 ft | 446 kts | 143° |
| 2026-04-15 10:30 | 39.44056 | 22.16797 | 35173 ft | 447 kts | 144° |
| 2026-04-15 10:31 | 39.39449 | 22.22199 | 35166 ft | 447 kts | 144° |
| 2026-04-15 10:31 | 39.34839 | 22.27602 | 35163 ft | 448 kts | 144° |
| 2026-04-15 10:32 | 39.30221 | 22.33003 | 35163 ft | 448 kts | 144° |
| 2026-04-15 10:32 | 39.25593 | 22.38408 | 35165 ft | 449 kts | 144° |
| 2026-04-15 10:33 | 39.20959 | 22.43796 | 35169 ft | 449 kts | 144° |
| 2026-04-15 10:33 | 39.16314 | 22.49185 | 35150 ft | 450 kts | 144° |
| 2026-04-15 10:34 | 39.11654 | 22.54576 | 35148 ft | 451 kts | 144° |
| 2026-04-15 10:34 | 39.06984 | 22.59981 | 35147 ft | 452 kts | 144° |
| 2026-04-15 10:35 | 39.02308 | 22.65391 | 35153 ft | 452 kts | 144° |
| 2026-04-15 10:35 | 38.97627 | 22.70798 | 35155 ft | 453 kts | 144° |
| 2026-04-15 10:36 | 38.92937 | 22.76202 | 35164 ft | 453 kts | 144° |
| 2026-04-15 10:36 | 38.88240 | 22.81587 | 35156 ft | 453 kts | 144° |
| 2026-04-15 10:37 | 38.83538 | 22.86964 | 35164 ft | 453 kts | 144° |
| 2026-04-15 10:37 | 38.78866 | 22.92312 | 35161 ft | 453 kts | 144° |
| 2026-04-15 10:38 | 38.74137 | 22.97730 | 35167 ft | 453 kts | 144° |
| 2026-04-15 10:38 | 38.69435 | 23.03097 | 35170 ft | 453 kts | 144° |
| 2026-04-15 10:39 | 38.64756 | 23.08413 | 35166 ft | 453 kts | 144° |
| 2026-04-15 10:39 | 38.60011 | 23.13791 | 35151 ft | 453 kts | 144° |
| 2026-04-15 10:40 | 38.55329 | 23.19105 | 35152 ft | 454 kts | 144° |
| 2026-04-15 10:40 | 38.50608 | 23.24468 | 35149 ft | 454 kts | 143° |
| 2026-04-15 10:41 | 38.45886 | 23.29808 | 35154 ft | 453 kts | 143° |
| 2026-04-15 10:41 | 38.41157 | 23.35129 | 35163 ft | 453 kts | 144° |
| 2026-04-15 10:42 | 38.36431 | 23.40435 | 35168 ft | 453 kts | 143° |
| 2026-04-15 10:42 | 38.31707 | 23.45742 | 35142 ft | 452 kts | 143° |
| 2026-04-15 10:43 | 38.26987 | 23.51038 | 35144 ft | 452 kts | 143° |
| 2026-04-15 10:43 | 38.22268 | 23.56322 | 35148 ft | 452 kts | 143° |
| 2026-04-15 10:44 | 38.17551 | 23.61601 | 35150 ft | 451 kts | 143° |
| 2026-04-15 10:44 | 38.12912 | 23.66775 | 35146 ft | 451 kts | 143° |
| 2026-04-15 10:45 | 38.08190 | 23.72031 | 35146 ft | 451 kts | 143° |
| 2026-04-15 10:45 | 38.03473 | 23.77278 | 35137 ft | 451 kts | 143° |
| 2026-04-15 10:46 | 37.98763 | 23.82509 | 35150 ft | 450 kts | 143° |
| 2026-04-15 10:46 | 37.94059 | 23.87725 | 35168 ft | 449 kts | 143° |
| 2026-04-15 10:47 | 37.89361 | 23.92931 | 35169 ft | 449 kts | 143° |
| 2026-04-15 10:47 | 37.84657 | 23.98123 | 35170 ft | 448 kts | 143° |
| 2026-04-15 10:48 | 37.79953 | 24.03306 | 35164 ft | 448 kts | 143° |
| 2026-04-15 10:48 | 37.75251 | 24.08478 | 35145 ft | 448 kts | 143° |
| 2026-04-15 10:49 | 37.70542 | 24.13645 | 35135 ft | 448 kts | 143° |
| 2026-04-15 10:49 | 37.65832 | 24.18804 | 35122 ft | 449 kts | 143° |
| 2026-04-15 10:50 | 37.61116 | 24.23966 | 35116 ft | 449 kts | 143° |
| 2026-04-15 10:50 | 37.56391 | 24.29121 | 35117 ft | 448 kts | 146° |
| 2026-04-15 10:51 | 37.51232 | 24.33407 | 35116 ft | 444 kts | 152° |
| 2026-04-15 10:51 | 37.46024 | 24.37486 | 35118 ft | 444 kts | 152° |
| 2026-04-15 10:52 | 37.40752 | 24.41628 | 35112 ft | 443 kts | 152° |
| 2026-04-15 10:52 | 37.35561 | 24.45697 | 35136 ft | 442 kts | 152° |
| 2026-04-15 10:53 | 37.30338 | 24.49786 | 35131 ft | 442 kts | 152° |
| 2026-04-15 10:53 | 37.25123 | 24.53862 | 35132 ft | 442 kts | 152° |
| 2026-04-15 10:54 | 37.19909 | 24.57931 | 35126 ft | 441 kts | 152° |
| 2026-04-15 10:54 | 37.15572 | 24.61303 | 35121 ft | 441 kts | 152° |
| 2026-04-15 10:55 | 37.10356 | 24.65354 | 35114 ft | 441 kts | 152° |
| 2026-04-15 10:55 | 37.05142 | 24.69397 | 35116 ft | 441 kts | 152° |
| 2026-04-15 10:56 | 36.99928 | 24.73440 | 35113 ft | 441 kts | 152° |
| 2026-04-15 10:56 | 36.94712 | 24.77479 | 35108 ft | 441 kts | 152° |
| 2026-04-15 10:57 | 36.89497 | 24.81509 | 35096 ft | 441 kts | 152° |
| 2026-04-15 10:57 | 36.81672 | 24.87563 | 35096 ft | 441 kts | 152° |
| 2026-04-15 10:58 | 36.76454 | 24.91593 | 35094 ft | 441 kts | 152° |
| 2026-04-15 10:58 | 36.71227 | 24.95617 | 35098 ft | 441 kts | 152° |
| 2026-04-15 10:59 | 36.66002 | 24.99639 | 35093 ft | 442 kts | 152° |
| 2026-04-15 10:59 | 36.60776 | 25.03648 | 35090 ft | 441 kts | 152° |
| 2026-04-15 11:00 | 36.55557 | 25.07643 | 35103 ft | 440 kts | 152° |
| 2026-04-15 11:00 | 36.50347 | 25.11624 | 34761 ft | 439 kts | 152° |
| 2026-04-15 11:01 | 36.47747 | 25.13609 | 34517 ft | 439 kts | 151° |
| 2026-04-15 11:01 | 36.45175 | 25.15570 | 33724 ft | 442 kts | 151° |
| 2026-04-15 11:01 | 36.42547 | 25.17570 | 32787 ft | 445 kts | 151° |
| 2026-04-15 11:01 | 36.39898 | 25.19581 | 31826 ft | 448 kts | 151° |
| 2026-04-15 11:02 | 36.37221 | 25.21611 | 30868 ft | 452 kts | 151° |
| 2026-04-15 11:02 | 36.34496 | 25.23683 | 29784 ft | 456 kts | 151° |
| 2026-04-15 11:02 | 36.31808 | 25.25721 | 28641 ft | 461 kts | 151° |
| 2026-04-15 11:02 | 36.29063 | 25.27804 | 27542 ft | 464 kts | 151° |
| 2026-04-15 11:03 | 36.26302 | 25.29899 | 26529 ft | 466 kts | 151° |
| 2026-04-15 11:03 | 36.23585 | 25.31961 | 26316 ft | 449 kts | 151° |
| 2026-04-15 11:03 | 36.20994 | 25.33932 | 26113 ft | 424 kts | 151° |
| 2026-04-15 11:03 | 36.18535 | 25.35801 | 25485 ft | 409 kts | 151° |
| 2026-04-15 11:04 | 36.16133 | 25.37617 | 24651 ft | 401 kts | 151° |
| 2026-04-15 11:04 | 36.13766 | 25.39388 | 23780 ft | 395 kts | 153° |
| 2026-04-15 11:04 | 36.11314 | 25.40851 | 22794 ft | 387 kts | 161° |
| 2026-04-15 11:04 | 36.08800 | 25.41904 | 22089 ft | 375 kts | 165° |
| 2026-04-15 11:05 | 36.06346 | 25.42882 | 21361 ft | 367 kts | 165° |
| 2026-04-15 11:05 | 36.03936 | 25.43856 | 20601 ft | 361 kts | 165° |
| 2026-04-15 11:05 | 36.01588 | 25.44811 | 20101 ft | 349 kts | 165° |
| 2026-04-15 11:05 | 35.99305 | 25.45740 | 19477 ft | 342 kts | 165° |
| 2026-04-15 11:06 | 35.97085 | 25.46640 | 19047 ft | 330 kts | 165° |
| 2026-04-15 11:06 | 35.94922 | 25.47513 | 18505 ft | 324 kts | 166° |
| 2026-04-15 11:06 | 35.92795 | 25.48367 | 17854 ft | 320 kts | 166° |
| 2026-04-15 11:06 | 35.90690 | 25.49208 | 17217 ft | 316 kts | 166° |
| 2026-04-15 11:07 | 35.88613 | 25.50038 | 16587 ft | 312 kts | 166° |
| 2026-04-15 11:07 | 35.86564 | 25.50857 | 16109 ft | 304 kts | 166° |
| 2026-04-15 11:07 | 35.84593 | 25.51649 | 15692 ft | 296 kts | 165° |
| 2026-04-15 11:07 | 35.82638 | 25.52435 | 15116 ft | 294 kts | 165° |
| 2026-04-15 11:08 | 35.80714 | 25.53210 | 14637 ft | 289 kts | 165° |
| 2026-04-15 11:08 | 35.78819 | 25.53969 | 14159 ft | 284 kts | 165° |
| 2026-04-15 11:08 | 35.76951 | 25.54711 | 13663 ft | 280 kts | 165° |
| 2026-04-15 11:08 | 35.75109 | 25.55440 | 13145 ft | 276 kts | 165° |
| 2026-04-15 11:09 | 35.73293 | 25.56161 | 12629 ft | 273 kts | 165° |
| 2026-04-15 11:09 | 35.71499 | 25.56876 | 12126 ft | 269 kts | 164° |
| 2026-04-15 11:09 | 35.69793 | 25.57745 | 11731 ft | 263 kts | 155° |
| 2026-04-15 11:09 | 35.68252 | 25.58904 | 11367 ft | 257 kts | 146° |
| 2026-04-15 11:10 | 35.66865 | 25.60254 | 11039 ft | 253 kts | 143° |
| 2026-04-15 11:10 | 35.65519 | 25.61588 | 10921 ft | 244 kts | 143° |
| 2026-04-15 11:10 | 35.64216 | 25.62875 | 10795 ft | 236 kts | 143° |
| 2026-04-15 11:10 | 35.62958 | 25.64116 | 10673 ft | 228 kts | 143° |
| 2026-04-15 11:11 | 35.61706 | 25.65244 | 10511 ft | 219 kts | 154° |
| 2026-04-15 11:11 | 35.60288 | 25.65863 | 10259 ft | 216 kts | 171° |
| 2026-04-15 11:11 | 35.58797 | 25.65894 | 9987 ft | 215 kts | 189° |
| 2026-04-15 11:11 | 35.57385 | 25.65349 | 9814 ft | 211 kts | 206° |
| 2026-04-15 11:12 | 35.56201 | 25.64321 | 9682 ft | 208 kts | 222° |
| 2026-04-15 11:12 | 35.55334 | 25.62913 | 9562 ft | 207 kts | 239° |
| 2026-04-15 11:12 | 35.54660 | 25.61350 | 9432 ft | 207 kts | 239° |
| 2026-04-15 11:12 | 35.53984 | 25.59790 | 9306 ft | 207 kts | 239° |
| 2026-04-15 11:13 | 35.53309 | 25.58234 | 9175 ft | 206 kts | 238° |
| 2026-04-15 11:13 | 35.52642 | 25.56693 | 8932 ft | 208 kts | 239° |
| 2026-04-15 11:13 | 35.51960 | 25.55124 | 8619 ft | 211 kts | 238° |
| 2026-04-15 11:13 | 35.51266 | 25.53526 | 8242 ft | 212 kts | 238° |
| 2026-04-15 11:14 | 35.50571 | 25.51927 | 7874 ft | 212 kts | 238° |
| 2026-04-15 11:14 | 35.49878 | 25.50333 | 7513 ft | 212 kts | 239° |
| 2026-04-15 11:14 | 35.49187 | 25.48742 | 7148 ft | 211 kts | 238° |
| 2026-04-15 11:14 | 35.48496 | 25.47154 | 6791 ft | 211 kts | 238° |
| 2026-04-15 11:15 | 35.47813 | 25.45583 | 6485 ft | 208 kts | 238° |
| 2026-04-15 11:15 | 35.47121 | 25.43995 | 5978 ft | 214 kts | 238° |
| 2026-04-15 11:15 | 35.46392 | 25.42385 | 5485 ft | 217 kts | 231° |
| 2026-04-15 11:15 | 35.45304 | 25.41145 | 5001 ft | 214 kts | 205° |
| 2026-04-15 11:16 | 35.43920 | 25.40619 | 4618 ft | 206 kts | 180° |
| 2026-04-15 11:16 | 35.42556 | 25.40829 | 4440 ft | 191 kts | 158° |
| 2026-04-15 11:16 | 35.41403 | 25.41545 | 4310 ft | 184 kts | 149° |
| 2026-04-15 11:16 | 35.40287 | 25.42310 | 4209 ft | 183 kts | 150° |
| 2026-04-15 11:17 | 35.39177 | 25.43066 | 4102 ft | 182 kts | 150° |
| 2026-04-15 11:17 | 35.38063 | 25.43812 | 3970 ft | 183 kts | 154° |
| 2026-04-15 11:17 | 35.36830 | 25.44020 | 3830 ft | 179 kts | 190° |
| 2026-04-15 11:17 | 35.35769 | 25.43345 | 3735 ft | 169 kts | 221° |
| 2026-04-15 11:18 | 35.35179 | 25.42167 | 3616 ft | 157 kts | 242° |
| 2026-04-15 11:18 | 35.34732 | 25.40983 | 3476 ft | 150 kts | 242° |
| 2026-04-15 11:18 | 35.34295 | 25.39845 | 3348 ft | 149 kts | 242° |
| 2026-04-15 11:18 | 35.33852 | 25.38701 | 3225 ft | 149 kts | 241° |
| 2026-04-15 11:19 | 35.33410 | 25.37558 | 3130 ft | 148 kts | 242° |
| 2026-04-15 11:19 | 35.32991 | 25.36406 | 3058 ft | 149 kts | 249° |
| 2026-04-15 11:19 | 35.32806 | 25.35153 | 2901 ft | 151 kts | 266° |
| 2026-04-15 11:19 | 35.32878 | 25.33875 | 2701 ft | 151 kts | 274° |
| 2026-04-15 11:20 | 35.32971 | 25.32588 | 2474 ft | 152 kts | 274° |
| 2026-04-15 11:20 | 35.33058 | 25.31316 | 2274 ft | 149 kts | 275° |
| 2026-04-15 11:20 | 35.33144 | 25.30053 | 2069 ft | 149 kts | 276° |
| 2026-04-15 11:20 | 35.33230 | 25.28793 | 1849 ft | 148 kts | 276° |
| 2026-04-15 11:21 | 35.33318 | 25.27535 | 1629 ft | 149 kts | 276° |
| 2026-04-15 11:21 | 35.33407 | 25.26280 | 1406 ft | 147 kts | 277° |
| 2026-04-15 11:21 | 35.33492 | 25.25045 | 1192 ft | 144 kts | 277° |
| 2026-04-15 11:21 | 35.33575 | 25.23839 | 979 ft | 140 kts | 276° |
| 2026-04-15 11:22 | 35.33661 | 25.22662 | 776 ft | 138 kts | 277° |
| 2026-04-15 11:22 | 35.33741 | 25.21502 | 549 ft | 135 kts | 277° |
| 2026-04-15 11:22 | 35.33811 | 25.20356 | 359 ft | 135 kts | 276° |
| 2026-04-15 11:22 | 35.33891 | 25.19202 | 148 ft | 137 kts | 277° |
| 2026-04-15 11:23 | 35.33969 | 25.18122 | 92 ft | 98 kts | 274° |
| 2026-04-15 11:23 | 35.34004 | 25.17621 | 92 ft | 38 kts | 276° |
| 2026-04-15 11:23 | 35.34026 | 25.17312 | 90 ft | 33 kts | 274° |
| 2026-04-15 11:23 | 35.34005 | 25.17120 | 90 ft | 10 kts | 238° |
| 2026-04-15 11:24 | 35.33964 | 25.17065 | 90 ft | 7 kts | 199° |
| 2026-04-15 11:24 | 35.33942 | 25.17079 | 91 ft | 2 kts | 112° |
| 2026-04-15 11:24 | 35.33939 | 25.17123 | 90 ft | 9 kts | 95° |
| 2026-04-15 11:24 | 35.33934 | 25.17204 | 90 ft | 9 kts | 94° |
| 2026-04-15 11:25 | 35.33930 | 25.17276 | 91 ft | 8 kts | 94° |
| 2026-04-15 11:25 | 35.33927 | 25.17340 | 91 ft | 8 kts | 94° |
| 2026-04-15 11:25 | 35.33922 | 25.17411 | 91 ft | 12 kts | 96° |
| 2026-04-15 11:25 | 35.33911 | 25.17522 | 92 ft | 13 kts | 97° |
| 2026-04-15 11:26 | 35.33903 | 25.17632 | 91 ft | 12 kts | 94° |
| 2026-04-15 11:26 | 35.33897 | 25.17725 | 94 ft | 8 kts | 94° |
| 2026-04-15 11:26 | 35.33892 | 25.17790 | 92 ft | 7 kts | 99° |
| 2026-04-15 11:26 | 35.33855 | 25.17822 | 91 ft | 7 kts | 180° |
| 2026-04-15 11:27 | 35.33823 | 25.17794 | 92 ft | 0 kts | 237° |